createdAt,value
2024-05-09T00:00:22.028Z,0.00
2024-05-09T00:01:14.468Z,0.00
2024-05-09T00:02:14.488Z,0.00
2024-05-09T00:03:14.482Z,0.00
2024-05-09T00:04:14.448Z,0.00
2024-05-09T00:05:14.652Z,0.00
2024-05-09T00:06:14.470Z,0.00
2024-05-09T00:07:14.393Z,0.00
2024-05-09T00:08:14.558Z,0.00
2024-05-09T00:09:14.488Z,0.00
2024-05-09T00:10:22.527Z,0.00
2024-05-09T00:11:14.494Z,0.00
2024-05-09T00:12:14.412Z,0.00
2024-05-09T00:13:14.386Z,0.00
2024-05-09T00:14:14.353Z,0.00
2024-05-09T00:15:14.287Z,0.00
2024-05-09T00:16:14.277Z,0.00
2024-05-09T00:17:14.303Z,0.00
2024-05-09T00:18:14.471Z,0.00
2024-05-09T00:19:14.689Z,0.00
2024-05-09T00:20:20.462Z,0.00
2024-05-09T00:21:14.260Z,0.00
2024-05-09T00:22:14.207Z,0.00
2024-05-09T00:23:14.388Z,0.00
2024-05-09T00:24:14.200Z,0.00
2024-05-09T00:25:14.230Z,0.00
2024-05-09T00:26:14.252Z,0.00
2024-05-09T00:27:14.213Z,0.00
2024-05-09T00:28:14.154Z,0.00
2024-05-09T00:29:14.197Z,0.00
2024-05-09T00:30:21.119Z,0.00
2024-05-09T00:31:14.133Z,0.00
2024-05-09T00:32:14.231Z,0.00
2024-05-09T00:33:14.350Z,0.00
2024-05-09T00:34:14.278Z,0.00
2024-05-09T00:35:14.114Z,0.00
2024-05-09T00:36:14.076Z,0.00
2024-05-09T00:37:14.068Z,0.00
2024-05-09T00:38:14.095Z,0.00
2024-05-09T00:39:14.139Z,0.00
2024-05-09T00:40:18.782Z,0.00
2024-05-09T00:41:16.358Z,0.00
2024-05-09T00:42:14.030Z,0.00
2024-05-09T00:43:15.028Z,0.00
2024-05-09T00:44:14.064Z,0.00
2024-05-09T00:45:14.175Z,0.00
2024-05-09T00:46:13.995Z,0.00
2024-05-09T00:47:14.141Z,0.00
2024-05-09T00:48:16.236Z,0.00
2024-05-09T00:49:14.062Z,0.00
2024-05-09T00:50:19.287Z,0.00
2024-05-09T00:51:14.037Z,0.00
2024-05-09T00:52:13.934Z,0.00
2024-05-09T00:53:13.951Z,0.00
2024-05-09T00:54:13.853Z,0.00
2024-05-09T00:55:13.836Z,0.00
2024-05-09T00:56:13.875Z,0.00
2024-05-09T00:57:13.896Z,0.00
2024-05-09T00:58:13.844Z,0.00
2024-05-09T00:59:13.875Z,0.00
2024-05-09T01:00:22.642Z,0.00
2024-05-09T01:01:13.819Z,0.00
2024-05-09T01:02:13.923Z,0.00
2024-05-09T01:03:14.576Z,0.00
2024-05-09T01:04:13.935Z,0.00
2024-05-09T01:05:13.790Z,0.00
2024-05-09T01:06:13.749Z,0.00
2024-05-09T01:07:13.717Z,0.00
2024-05-09T01:08:13.844Z,0.00
2024-05-09T01:09:13.801Z,0.00
2024-05-09T01:10:20.916Z,0.00
2024-05-09T01:11:13.800Z,0.00
2024-05-09T01:12:13.931Z,0.00
2024-05-09T01:13:13.666Z,0.00
2024-05-09T01:14:13.714Z,0.00
2024-05-09T01:15:13.632Z,0.00
2024-05-09T01:16:13.675Z,0.00
2024-05-09T01:17:13.757Z,0.00
2024-05-09T01:18:14.123Z,0.00
2024-05-09T01:19:13.796Z,0.00
2024-05-09T01:20:20.039Z,0.00
2024-05-09T01:21:13.885Z,0.00
2024-05-09T01:22:13.603Z,0.00
2024-05-09T01:23:15.390Z,0.00
2024-05-09T01:24:13.515Z,0.00
2024-05-09T01:25:13.528Z,0.00
2024-05-09T01:26:13.659Z,0.00
2024-05-09T01:27:13.535Z,0.00
2024-05-09T01:28:13.505Z,0.00
2024-05-09T01:29:13.561Z,0.00
2024-05-09T01:30:17.430Z,0.00
2024-05-09T01:31:13.548Z,0.00
2024-05-09T01:32:13.606Z,0.00
2024-05-09T01:33:13.928Z,0.00
2024-05-09T01:34:13.475Z,0.00
2024-05-09T01:35:13.471Z,0.00
2024-05-09T01:36:13.485Z,0.00
2024-05-09T01:37:13.455Z,0.00
2024-05-09T01:38:14.126Z,0.00
2024-05-09T01:39:13.376Z,0.00
2024-05-09T01:40:18.541Z,0.00
2024-05-09T01:41:13.423Z,0.00
2024-05-09T01:42:13.338Z,0.00
2024-05-09T01:43:13.376Z,0.00
2024-05-09T01:44:13.620Z,0.00
2024-05-09T01:45:13.387Z,0.00
2024-05-09T01:46:13.406Z,0.00
2024-05-09T01:47:13.455Z,0.00
2024-05-09T01:48:13.428Z,0.00
2024-05-09T01:49:13.350Z,0.00
2024-05-09T01:50:16.408Z,0.00
2024-05-09T01:51:13.396Z,0.00
2024-05-09T01:52:13.382Z,0.00
2024-05-09T01:53:13.967Z,0.00
2024-05-09T01:54:13.286Z,0.00
2024-05-09T01:55:13.806Z,0.00
2024-05-09T01:56:13.290Z,0.00
2024-05-09T01:57:13.279Z,0.00
2024-05-09T01:58:13.207Z,0.00
2024-05-09T01:59:13.260Z,0.00
2024-05-09T02:00:19.003Z,0.00
2024-05-09T02:01:13.161Z,0.00
2024-05-09T02:02:13.262Z,0.00
2024-05-09T02:03:16.089Z,0.00
2024-05-09T02:04:13.458Z,0.00
2024-05-09T02:05:13.269Z,0.00
2024-05-09T02:06:13.117Z,0.00
2024-05-09T02:07:13.161Z,0.00
2024-05-09T02:08:13.093Z,0.00
2024-05-09T02:09:13.109Z,0.00
2024-05-09T02:10:20.181Z,0.00
2024-05-09T02:11:13.127Z,0.00
2024-05-09T02:12:13.171Z,0.00
2024-05-09T02:13:13.061Z,0.00
2024-05-09T02:14:13.040Z,0.00
2024-05-09T02:15:12.969Z,0.00
2024-05-09T02:16:12.950Z,0.00
2024-05-09T02:17:13.005Z,0.00
2024-05-09T02:18:13.648Z,0.00
2024-05-09T02:19:13.234Z,0.00
2024-05-09T02:20:18.943Z,0.00
2024-05-09T02:21:12.931Z,0.00
2024-05-09T02:22:12.901Z,0.00
2024-05-09T02:23:13.080Z,0.00
2024-05-09T02:24:12.986Z,0.00
2024-05-09T02:25:12.987Z,0.00
2024-05-09T02:26:12.949Z,0.00
2024-05-09T02:27:12.959Z,0.00
2024-05-09T02:28:12.827Z,0.00
2024-05-09T02:29:12.876Z,0.00
2024-05-09T02:30:18.991Z,0.00
2024-05-09T02:31:12.853Z,0.00
2024-05-09T02:32:12.962Z,0.00
2024-05-09T02:33:14.294Z,0.00
2024-05-09T02:34:12.854Z,0.00
2024-05-09T02:35:12.791Z,0.00
2024-05-09T02:36:12.879Z,0.00
2024-05-09T02:37:12.916Z,0.00
2024-05-09T02:38:13.362Z,0.00
2024-05-09T02:39:12.711Z,0.00
2024-05-09T02:40:14.915Z,0.00
2024-05-09T02:41:12.748Z,0.00
2024-05-09T02:42:12.910Z,0.00
2024-05-09T02:43:13.249Z,0.00
2024-05-09T02:44:12.779Z,1.00
2024-05-09T02:45:12.633Z,0.00
2024-05-09T02:46:12.645Z,1.00
2024-05-09T02:47:12.820Z,1.00
2024-05-09T02:48:13.848Z,1.00
2024-05-09T02:49:12.760Z,1.00
2024-05-09T02:51:12.681Z,2.00
2024-05-09T02:52:12.653Z,2.00
2024-05-09T02:53:12.722Z,2.00
2024-05-09T02:54:12.579Z,2.00
2024-05-09T02:55:12.507Z,3.00
2024-05-09T02:56:12.937Z,3.00
2024-05-09T02:57:12.512Z,4.00
2024-05-09T02:58:12.513Z,3.00
2024-05-09T02:59:12.549Z,3.00
2024-05-09T03:00:18.842Z,9.00
2024-05-09T03:01:12.463Z,6.00
2024-05-09T03:02:12.613Z,10.00
2024-05-09T03:03:14.602Z,8.00
2024-05-09T03:04:12.456Z,6.00
2024-05-09T03:05:12.436Z,9.00
2024-05-09T03:06:12.370Z,9.00
2024-05-09T03:07:12.357Z,13.00
2024-05-09T03:08:12.762Z,15.00
2024-05-09T03:09:12.413Z,19.00
2024-05-09T03:10:18.574Z,21.00
2024-05-09T03:11:12.419Z,23.00
2024-05-09T03:12:12.562Z,28.00
2024-05-09T03:13:13.562Z,26.00
2024-05-09T03:14:12.370Z,30.00
2024-05-09T03:15:12.336Z,41.00
2024-05-09T03:16:12.285Z,46.00
2024-05-09T03:17:12.307Z,48.00
2024-05-09T03:18:12.855Z,53.00
2024-05-09T03:19:12.589Z,58.00
2024-05-09T03:20:20.338Z,64.00
2024-05-09T03:21:12.299Z,67.00
2024-05-09T03:22:12.279Z,73.00
2024-05-09T03:23:12.500Z,80.00
2024-05-09T03:24:12.315Z,85.00
2024-05-09T03:25:12.179Z,94.00
2024-05-09T03:26:12.340Z,103.00
2024-05-09T03:27:12.263Z,113.00
2024-05-09T03:28:12.157Z,120.00
2024-05-09T03:29:12.218Z,130.00
2024-05-09T03:31:12.109Z,148.00
2024-05-09T03:32:12.320Z,160.00
2024-05-09T03:33:13.803Z,170.00
2024-05-09T03:34:12.267Z,182.00
2024-05-09T03:35:12.254Z,195.00
2024-05-09T03:36:12.138Z,202.00
2024-05-09T03:37:12.142Z,215.00
2024-05-09T03:38:12.431Z,222.00
2024-05-09T03:39:12.136Z,230.00
2024-05-09T03:40:20.249Z,248.00
2024-05-09T03:41:12.175Z,264.00
2024-05-09T03:42:12.146Z,272.00
2024-05-09T03:43:12.139Z,283.00
2024-05-09T03:44:12.245Z,295.00
2024-05-09T03:45:12.129Z,305.00
2024-05-09T03:46:12.000Z,319.00
2024-05-09T03:47:12.097Z,334.00
2024-05-09T03:48:12.238Z,347.00
2024-05-09T03:49:12.113Z,356.00
2024-05-09T03:50:18.365Z,373.00
2024-05-09T03:51:12.131Z,383.00
2024-05-09T03:52:11.965Z,400.00
2024-05-09T03:53:11.964Z,409.00
2024-05-09T03:54:12.358Z,420.00
2024-05-09T03:55:11.889Z,436.00
2024-05-09T03:56:12.531Z,444.00
2024-05-09T03:57:12.063Z,456.00
2024-05-09T03:58:11.904Z,470.00
2024-05-09T03:59:11.861Z,479.00
2024-05-09T04:00:17.917Z,492.00
2024-05-09T04:01:12.060Z,504.00
2024-05-09T04:02:11.924Z,517.00
2024-05-09T04:03:13.215Z,529.00
2024-05-09T04:04:11.803Z,541.00
2024-05-09T04:05:11.897Z,554.00
2024-05-09T04:06:11.727Z,563.00
2024-05-09T04:07:11.755Z,577.00
2024-05-09T04:08:11.924Z,591.00
2024-05-09T04:09:11.743Z,603.00
2024-05-09T04:10:20.956Z,611.00
2024-05-09T04:11:11.808Z,627.00
2024-05-09T04:12:11.754Z,641.00
2024-05-09T04:13:11.780Z,652.00
2024-05-09T04:14:11.801Z,668.00
2024-05-09T04:15:13.634Z,680.00
2024-05-09T04:16:11.690Z,697.00
2024-05-09T04:17:11.725Z,701.00
2024-05-09T04:18:11.686Z,720.00
2024-05-09T04:19:11.874Z,732.00
2024-05-09T04:20:21.316Z,747.00
2024-05-09T04:21:12.125Z,753.00
2024-05-09T04:22:11.688Z,768.00
2024-05-09T04:23:12.026Z,780.00
2024-05-09T04:24:11.534Z,800.00
2024-05-09T04:25:11.557Z,812.00
2024-05-09T04:26:11.779Z,831.00
2024-05-09T04:27:11.688Z,851.00
2024-05-09T04:28:11.664Z,863.00
2024-05-09T04:29:11.567Z,878.00
2024-05-09T04:30:18.945Z,887.00
2024-05-09T04:31:11.510Z,898.00
2024-05-09T04:32:11.654Z,910.00
2024-05-09T04:33:13.462Z,920.00
2024-05-09T04:34:11.766Z,933.00
2024-05-09T04:35:11.560Z,942.00
2024-05-09T04:36:11.417Z,953.00
2024-05-09T04:37:11.560Z,966.00
2024-05-09T04:38:11.588Z,982.00
2024-05-09T04:39:12.357Z,993.00
2024-05-09T04:40:20.485Z,1019.00
2024-05-09T04:41:11.644Z,1022.00
2024-05-09T04:42:11.363Z,1042.00
2024-05-09T04:43:11.368Z,1055.00
2024-05-09T04:44:11.328Z,1067.00
2024-05-09T04:45:11.387Z,1085.00
2024-05-09T04:46:11.376Z,1096.00
2024-05-09T04:47:11.425Z,1108.00
2024-05-09T04:48:11.692Z,1120.00
2024-05-09T04:49:11.365Z,1131.00
2024-05-09T04:50:11.795Z,1144.00
2024-05-09T04:51:11.332Z,1227.00
2024-05-09T04:52:11.321Z,1157.00
2024-05-09T04:53:11.770Z,1129.00
2024-05-09T04:54:22.116Z,1222.00
2024-05-09T04:55:11.331Z,1228.00
2024-05-09T04:56:11.332Z,1234.00
2024-05-09T04:57:11.215Z,1259.00
2024-05-09T04:58:11.295Z,1303.00
2024-05-09T04:59:11.264Z,1310.00
2024-05-09T05:00:14.908Z,1301.00
2024-05-09T05:01:11.198Z,1312.00
2024-05-09T05:02:11.256Z,1340.00
2024-05-09T05:03:13.741Z,1370.00
2024-05-09T05:04:11.274Z,1591.00
2024-05-09T05:05:12.071Z,1453.00
2024-05-09T05:06:11.126Z,1377.00
2024-05-09T05:07:11.107Z,1451.00
2024-05-09T05:08:11.116Z,1219.00
2024-05-09T05:09:11.040Z,1063.00
2024-05-09T05:10:15.053Z,1309.00
2024-05-09T05:11:11.180Z,1269.00
2024-05-09T05:12:11.174Z,1385.00
2024-05-09T05:13:11.037Z,1747.00
2024-05-09T05:14:11.033Z,1573.00
2024-05-09T05:15:11.010Z,1288.00
2024-05-09T05:16:11.063Z,1886.00
2024-05-09T05:17:11.078Z,2486.00
2024-05-09T05:18:11.218Z,2245.00
2024-05-09T05:19:13.480Z,1826.00
2024-05-09T05:20:15.213Z,1316.00
2024-05-09T05:21:11.083Z,1511.00
2024-05-09T05:22:10.974Z,2490.00
2024-05-09T05:23:10.994Z,2653.00
2024-05-09T05:24:10.890Z,1931.00
2024-05-09T05:25:10.955Z,1708.00
2024-05-09T05:26:10.941Z,1661.00
2024-05-09T05:27:10.851Z,1667.00
2024-05-09T05:28:10.957Z,1683.00
2024-05-09T05:29:10.976Z,1699.00
2024-05-09T05:30:17.585Z,1728.00
2024-05-09T05:31:10.835Z,1718.00
2024-05-09T05:32:10.917Z,1735.00
2024-05-09T05:33:10.880Z,1752.00
2024-05-09T05:34:10.899Z,1768.00
2024-05-09T05:35:10.853Z,1780.00
2024-05-09T05:36:10.897Z,1791.00
2024-05-09T05:37:10.838Z,1807.00
2024-05-09T05:38:11.099Z,1842.00
2024-05-09T05:39:10.847Z,2055.00
2024-05-09T05:40:14.631Z,1762.00
2024-05-09T05:41:10.734Z,2102.00
2024-05-09T05:42:10.933Z,1171.00
2024-05-09T05:43:11.155Z,1912.00
2024-05-09T05:44:10.814Z,1936.00
2024-05-09T05:45:10.672Z,1936.00
2024-05-09T05:46:10.674Z,1943.00
2024-05-09T05:47:10.716Z,1975.00
2024-05-09T05:48:10.779Z,1983.00
2024-05-09T05:49:10.871Z,1998.00
2024-05-09T05:50:20.711Z,2013.00
2024-05-09T05:51:10.726Z,2024.00
2024-05-09T05:52:10.663Z,2047.00
2024-05-09T05:53:10.932Z,2134.00
2024-05-09T05:54:10.559Z,2327.00
2024-05-09T05:55:10.622Z,1567.00
2024-05-09T05:56:10.709Z,2080.00
2024-05-09T05:57:10.531Z,2124.00
2024-05-09T05:58:10.569Z,2162.00
2024-05-09T05:59:11.967Z,2290.00
2024-05-09T06:00:17.956Z,1954.00
2024-05-09T06:01:10.602Z,2192.00
2024-05-09T06:02:10.609Z,2171.00
2024-05-09T06:03:11.223Z,2143.00
2024-05-09T06:04:10.617Z,2207.00
2024-05-09T06:05:10.805Z,2207.00
2024-05-09T06:06:10.467Z,2129.00
2024-05-09T06:07:10.474Z,2211.00
2024-05-09T06:08:10.654Z,2216.00
2024-05-09T06:09:10.420Z,2233.00
2024-05-09T06:10:17.316Z,2268.00
2024-05-09T06:11:10.470Z,2253.00
2024-05-09T06:12:10.524Z,2266.00
2024-05-09T06:13:10.568Z,2276.00
2024-05-09T06:14:10.379Z,2285.00
2024-05-09T06:15:10.372Z,2326.00
2024-05-09T06:16:10.353Z,2341.00
2024-05-09T06:17:10.586Z,2365.00
2024-05-09T06:18:11.723Z,2383.00
2024-05-09T06:19:10.530Z,2384.00
2024-05-09T06:20:20.112Z,2311.00
2024-05-09T06:21:10.343Z,2386.00
2024-05-09T06:22:10.256Z,2321.00
2024-05-09T06:23:10.658Z,2461.00
2024-05-09T06:24:10.245Z,2285.00
2024-05-09T06:25:10.346Z,2366.00
2024-05-09T06:26:10.406Z,2450.00
2024-05-09T06:27:10.209Z,2170.00
2024-05-09T06:28:10.188Z,2320.00
2024-05-09T06:29:10.208Z,2359.00
2024-05-09T06:30:21.039Z,2520.00
2024-05-09T06:31:10.261Z,2420.00
2024-05-09T06:32:10.337Z,2395.00
2024-05-09T06:33:11.984Z,2429.00
2024-05-09T06:34:10.302Z,2412.00
2024-05-09T06:35:10.179Z,2429.00
2024-05-09T06:36:10.100Z,2498.00
2024-05-09T06:37:10.126Z,2428.00
2024-05-09T06:38:10.383Z,2650.00
2024-05-09T06:39:10.160Z,2601.00
2024-05-09T06:40:10.189Z,2373.00
2024-05-09T06:41:10.212Z,2590.00
2024-05-09T06:42:10.060Z,2598.00
2024-05-09T06:43:10.040Z,2588.00
2024-05-09T06:44:10.167Z,2608.00
2024-05-09T06:45:10.111Z,2615.00
2024-05-09T06:46:09.985Z,2628.00
2024-05-09T06:47:10.186Z,2633.00
2024-05-09T06:48:11.156Z,2638.00
2024-05-09T06:49:10.115Z,2654.00
2024-05-09T06:50:19.609Z,2661.00
2024-05-09T06:51:10.286Z,2673.00
2024-05-09T06:52:10.023Z,2680.00
2024-05-09T06:53:10.034Z,2690.00
2024-05-09T06:54:09.903Z,2699.00
2024-05-09T06:55:09.917Z,2705.00
2024-05-09T06:56:09.924Z,2710.00
2024-05-09T06:57:09.938Z,2722.00
2024-05-09T06:58:11.052Z,2727.00
2024-05-09T06:59:09.892Z,2735.00
2024-05-09T07:00:15.520Z,2746.00
2024-05-09T07:01:09.876Z,2780.00
2024-05-09T07:02:09.880Z,2771.00
2024-05-09T07:03:10.804Z,2873.00
2024-05-09T07:04:10.040Z,2745.00
2024-05-09T07:05:09.962Z,2825.00
2024-05-09T07:06:09.934Z,2863.00
2024-05-09T07:07:09.830Z,3023.00
2024-05-09T07:08:10.312Z,2897.00
2024-05-09T07:09:09.828Z,2786.00
2024-05-09T07:10:14.986Z,2708.00
2024-05-09T07:11:09.905Z,2604.00
2024-05-09T07:12:09.854Z,2652.00
2024-05-09T07:13:09.735Z,2822.00
2024-05-09T07:14:09.731Z,2722.00
2024-05-09T07:15:09.743Z,3000.00
2024-05-09T07:16:09.701Z,2656.00
2024-05-09T07:17:09.740Z,2692.00
2024-05-09T07:18:09.977Z,3019.00
2024-05-09T07:19:09.990Z,2873.00
2024-05-09T07:20:16.161Z,2866.00
2024-05-09T07:21:09.754Z,2833.00
2024-05-09T07:22:09.716Z,2924.00
2024-05-09T07:23:09.759Z,2956.00
2024-05-09T07:24:09.633Z,2794.00
2024-05-09T07:25:09.727Z,2961.00
2024-05-09T07:26:09.729Z,2983.00
2024-05-09T07:27:09.606Z,3050.00
2024-05-09T07:28:09.660Z,3047.00
2024-05-09T07:29:10.413Z,3077.00
2024-05-09T07:30:13.513Z,3028.00
2024-05-09T07:31:09.536Z,3062.00
2024-05-09T07:32:09.504Z,3060.00
2024-05-09T07:33:09.764Z,3071.00
2024-05-09T07:34:09.666Z,3138.00
2024-05-09T07:35:09.502Z,3062.00
2024-05-09T07:36:09.512Z,3077.00
2024-05-09T07:37:09.437Z,3069.00
2024-05-09T07:38:09.494Z,3019.00
2024-05-09T07:39:09.519Z,3092.00
2024-05-09T07:40:12.048Z,3069.00
2024-05-09T07:41:09.439Z,3082.00
2024-05-09T07:42:09.402Z,3105.00
2024-05-09T07:43:09.373Z,3123.00
2024-05-09T07:44:09.921Z,3176.00
2024-05-09T07:45:21.410Z,3182.00
2024-05-09T07:47:13.877Z,3201.00
2024-05-09T07:50:34.096Z,3175.00
2024-05-09T07:53:32.429Z,3140.00
2024-05-09T07:53:49.465Z,3021.00
2024-05-09T07:54:00.491Z,3235.00
2024-05-09T07:54:56.467Z,3249.00
2024-05-09T07:55:56.815Z,3280.00
2024-05-09T07:56:56.364Z,3264.00
2024-05-09T07:57:57.070Z,3266.00
2024-05-09T07:58:56.420Z,3289.00
2024-05-09T07:59:56.007Z,3304.00
2024-05-09T08:00:56.155Z,3301.00
2024-05-09T08:01:56.144Z,3330.00
2024-05-09T08:02:56.056Z,3300.00
2024-05-09T08:03:56.372Z,3378.00
2024-05-09T08:04:56.224Z,3433.00
2024-05-09T08:05:55.975Z,3177.00
2024-05-09T08:06:55.962Z,3252.00
2024-05-09T08:07:55.919Z,3301.00
2024-05-09T08:08:57.847Z,3341.00
2024-05-09T08:09:56.045Z,3322.00
2024-05-09T08:10:56.078Z,3351.00
2024-05-09T08:11:55.991Z,3353.00
2024-05-09T08:12:55.940Z,3349.00
2024-05-09T08:13:55.862Z,3357.00
2024-05-09T08:14:55.845Z,3402.00
2024-05-09T08:15:56.027Z,3444.00
2024-05-09T08:16:55.957Z,3394.00
2024-05-09T08:17:56.396Z,3376.00
2024-05-09T08:18:55.990Z,3383.00
2024-05-09T08:19:55.799Z,3412.00
2024-05-09T08:20:55.803Z,3368.00
2024-05-09T08:21:55.915Z,3461.00
2024-05-09T08:22:55.795Z,3468.00
2024-05-09T08:23:55.882Z,3426.00
2024-05-09T08:24:55.946Z,3351.00
2024-05-09T08:25:55.831Z,3448.00
2024-05-09T08:26:55.750Z,3470.00
2024-05-09T08:27:55.907Z,3487.00
2024-05-09T08:28:55.741Z,3466.00
2024-05-09T08:29:55.794Z,3480.00
2024-05-09T08:30:55.914Z,3490.00
2024-05-09T08:31:56.006Z,3497.00
2024-05-09T08:32:55.824Z,3506.00
2024-05-09T08:33:55.926Z,3508.00
2024-05-09T08:34:55.862Z,3512.00
2024-05-09T08:35:55.656Z,3528.00
2024-05-09T08:36:57.562Z,3526.00
2024-05-09T08:37:55.875Z,3593.00
2024-05-09T08:38:55.657Z,3487.00
2024-05-09T08:39:55.762Z,3574.00
2024-05-09T08:40:55.692Z,3589.00
2024-05-09T08:41:55.610Z,3605.00
2024-05-09T08:42:55.634Z,3613.00
2024-05-09T08:43:55.629Z,3645.00
2024-05-09T08:44:55.645Z,3639.00
2024-05-09T08:45:55.650Z,3656.00
2024-05-09T08:46:55.626Z,3673.00
2024-05-09T08:47:55.780Z,3694.00
2024-05-09T08:48:55.692Z,3669.00
2024-05-09T08:49:55.593Z,3665.00
2024-05-09T08:50:55.654Z,3709.00
2024-05-09T08:51:55.647Z,3698.00
2024-05-09T08:52:55.523Z,3703.00
2024-05-09T08:53:55.476Z,3672.00
2024-05-09T08:54:55.515Z,3779.00
2024-05-09T08:55:55.533Z,3747.00
2024-05-09T08:56:55.473Z,3681.00
2024-05-09T08:57:55.500Z,3741.00
2024-05-09T08:58:55.532Z,3761.00
2024-05-09T08:59:55.442Z,3790.00
2024-05-09T09:00:55.566Z,3851.00
2024-05-09T09:01:55.592Z,3839.00
2024-05-09T09:02:55.497Z,3851.00
2024-05-09T09:03:55.596Z,3915.00
2024-05-09T09:04:55.470Z,3880.00
2024-05-09T09:05:55.424Z,3864.00
2024-05-09T09:06:58.200Z,3847.00
2024-05-09T09:07:55.352Z,3920.00
2024-05-09T09:08:55.371Z,3858.00
2024-05-09T09:09:55.447Z,3944.00
2024-05-09T09:10:55.428Z,3910.00
2024-05-09T09:11:55.407Z,3923.00
2024-05-09T09:12:55.402Z,3957.00
2024-05-09T09:13:55.340Z,4019.00
2024-05-09T09:14:55.287Z,4000.00
2024-05-09T09:15:55.324Z,3977.00
2024-05-09T09:16:55.307Z,4011.00
2024-05-09T09:17:55.427Z,4059.00
2024-05-09T09:18:55.573Z,4062.00
2024-05-09T09:19:55.458Z,4057.00
2024-05-09T09:20:55.378Z,4077.00
2024-05-09T09:21:55.339Z,4137.00
2024-05-09T09:22:55.252Z,4157.00
2024-05-09T09:23:55.313Z,4147.00
2024-05-09T09:24:55.372Z,4208.00
2024-05-09T09:25:55.320Z,4157.00
2024-05-09T09:26:55.222Z,4244.00
2024-05-09T09:27:55.346Z,4222.00
2024-05-09T09:28:55.239Z,4304.00
2024-05-09T09:29:55.299Z,4327.00
2024-05-09T09:30:55.252Z,4224.00
2024-05-09T09:31:55.174Z,4343.00
2024-05-09T09:32:55.280Z,4297.00
2024-05-09T09:33:55.313Z,4394.00
2024-05-09T09:34:55.320Z,4399.00
2024-05-09T09:35:55.446Z,4430.00
2024-05-09T09:36:55.265Z,4383.00
2024-05-09T09:37:55.177Z,4469.00
2024-05-09T09:38:55.195Z,4385.00
2024-05-09T09:39:55.183Z,4495.00
2024-05-09T09:40:55.210Z,4503.00
2024-05-09T09:41:55.217Z,4484.00
2024-05-09T09:42:55.137Z,4543.00
2024-05-09T09:43:55.100Z,4546.00
2024-05-09T09:45:03.794Z,4539.00
2024-05-09T09:45:56.002Z,4627.00
2024-05-09T09:46:55.209Z,4542.00
2024-05-09T09:47:55.251Z,4627.00
2024-05-09T09:48:55.263Z,4596.00
2024-05-09T09:49:55.121Z,4653.00
2024-05-09T09:50:55.054Z,4658.00
2024-05-09T09:51:55.272Z,4631.00
2024-05-09T09:52:55.045Z,4666.00
2024-05-09T09:53:55.091Z,4740.00
2024-05-09T09:54:55.173Z,4787.00
2024-05-09T09:55:55.453Z,4819.00
2024-05-09T09:56:55.709Z,4857.00
2024-05-09T09:57:55.092Z,4867.00
2024-05-09T09:58:54.986Z,4865.00
2024-05-09T09:59:55.050Z,4893.00
2024-05-09T10:00:55.968Z,4932.00
2024-05-09T10:01:56.023Z,4951.00
2024-05-09T10:02:55.054Z,4934.00
2024-05-09T10:03:55.240Z,4946.00
2024-05-09T10:04:55.160Z,5008.00
2024-05-09T10:05:55.282Z,5006.00
2024-05-09T10:06:54.990Z,5084.00
2024-05-09T10:07:55.019Z,4938.00
2024-05-09T10:08:55.027Z,5037.00
2024-05-09T10:09:54.932Z,5010.00
2024-05-09T10:10:55.126Z,5131.00
2024-05-09T10:11:59.978Z,5160.00
2024-05-09T10:12:54.973Z,5206.00
2024-05-09T10:13:55.011Z,5310.00
2024-05-09T10:14:55.809Z,5016.00
2024-05-09T10:15:54.954Z,5270.00
2024-05-09T10:16:54.854Z,5263.00
2024-05-09T10:17:55.073Z,5321.00
2024-05-09T10:18:55.247Z,5352.00
2024-05-09T10:19:55.885Z,5427.00
2024-05-09T10:20:54.841Z,5486.00
2024-05-09T10:21:54.936Z,5470.00
2024-05-09T10:22:54.810Z,5445.00
2024-05-09T10:23:54.880Z,5457.00
2024-05-09T10:24:54.975Z,5562.00
2024-05-09T10:25:54.796Z,5482.00
2024-05-09T10:26:54.773Z,5620.00
2024-05-09T10:27:54.905Z,5577.00
2024-05-09T10:28:54.744Z,5504.00
2024-05-09T10:29:54.943Z,5624.00
2024-05-09T10:30:54.830Z,5541.00
2024-05-09T10:31:54.798Z,5558.00
2024-05-09T10:32:54.799Z,5658.00
2024-05-09T10:33:55.024Z,5606.00
2024-05-09T10:34:54.743Z,5731.00
2024-05-09T10:35:54.794Z,5716.00
2024-05-09T10:36:55.351Z,5666.00
2024-05-09T10:37:54.716Z,5816.00
2024-05-09T10:38:54.721Z,5754.00
2024-05-09T10:39:54.812Z,5792.00
2024-05-09T10:40:54.645Z,5747.00
2024-05-09T10:41:54.665Z,5903.00
2024-05-09T10:42:54.764Z,5807.00
2024-05-09T10:43:54.682Z,5756.00
2024-05-09T10:44:54.903Z,5837.00
2024-05-09T10:45:54.628Z,5851.00
2024-05-09T10:46:54.946Z,6008.00
2024-05-09T10:47:54.704Z,5868.00
2024-05-09T10:48:54.745Z,5967.00
2024-05-09T10:49:54.715Z,5946.00
2024-05-09T10:50:54.620Z,5997.00
2024-05-09T10:51:54.640Z,5985.00
2024-05-09T10:52:54.520Z,6051.00
2024-05-09T10:53:54.538Z,6039.00
2024-05-09T10:54:54.603Z,6047.00
2024-05-09T10:55:54.461Z,6098.00
2024-05-09T10:56:54.563Z,6086.00
2024-05-09T10:57:54.596Z,6187.00
2024-05-09T10:58:54.505Z,6221.00
2024-05-09T10:59:54.481Z,6178.00
2024-05-09T11:00:54.560Z,6037.00
2024-05-09T11:01:54.462Z,6255.00
2024-05-09T11:02:54.496Z,6207.00
2024-05-09T11:03:54.547Z,6302.00
2024-05-09T11:04:54.496Z,6331.00
2024-05-09T11:05:54.468Z,6333.00
2024-05-09T11:06:55.016Z,6332.00
2024-05-09T11:07:54.317Z,6314.00
2024-05-09T11:08:54.361Z,6259.00
2024-05-09T11:09:54.411Z,6307.00
2024-05-09T11:10:54.569Z,6417.00
2024-05-09T11:11:54.543Z,6384.00
2024-05-09T11:12:54.420Z,6391.00
2024-05-09T11:13:54.254Z,6290.00
2024-05-09T11:14:54.276Z,6394.00
2024-05-09T11:15:54.292Z,6395.00
2024-05-09T11:16:54.302Z,6376.00
2024-05-09T11:17:54.290Z,6429.00
2024-05-09T11:18:54.481Z,6417.00
2024-05-09T11:19:54.162Z,6440.00
2024-05-09T11:20:54.154Z,6504.00
2024-05-09T11:21:54.222Z,6509.00
2024-05-09T11:22:54.215Z,6540.00
2024-05-09T11:23:54.125Z,6553.00
2024-05-09T11:24:54.327Z,6289.00
2024-05-09T11:25:54.153Z,6286.00
2024-05-09T11:26:54.107Z,6870.00
2024-05-09T11:27:54.067Z,6824.00
2024-05-09T11:28:54.096Z,7081.00
2024-05-09T11:29:54.021Z,7146.00
2024-05-09T11:30:54.103Z,7108.00
2024-05-09T11:31:54.159Z,7115.00
2024-05-09T11:32:54.075Z,7404.00
2024-05-09T11:33:54.108Z,7525.00
2024-05-09T11:34:53.962Z,7010.00
2024-05-09T11:35:53.933Z,6927.00
2024-05-09T11:36:54.063Z,6972.00
2024-05-09T11:37:54.028Z,7016.00
2024-05-09T11:38:53.917Z,7040.00
2024-05-09T11:39:53.916Z,7050.00
2024-05-09T11:40:54.273Z,7055.00
2024-05-09T11:41:53.876Z,7066.00
2024-05-09T11:42:53.912Z,7068.00
2024-05-09T11:43:53.900Z,7118.00
2024-05-09T11:44:53.829Z,7142.00
2024-05-09T11:45:53.874Z,7006.00
2024-05-09T11:46:53.815Z,7150.00
2024-05-09T11:47:54.044Z,7158.00
2024-05-09T11:48:54.025Z,7129.00
2024-05-09T11:49:53.977Z,7117.00
2024-05-09T11:50:53.858Z,7138.00
2024-05-09T11:51:53.886Z,7141.00
2024-05-09T11:52:54.484Z,7160.00
2024-05-09T11:53:53.718Z,7155.00
2024-05-09T11:54:53.899Z,7243.00
2024-05-09T11:55:53.830Z,7191.00
2024-05-09T11:56:53.692Z,7294.00
2024-05-09T11:57:53.789Z,7295.00
2024-05-09T11:58:53.719Z,7324.00
2024-05-09T11:59:53.702Z,7329.00
2024-05-09T12:00:53.787Z,7312.00
2024-05-09T12:01:53.931Z,7356.00
2024-05-09T12:02:53.657Z,7328.00
2024-05-09T12:03:53.731Z,7250.00
2024-05-09T12:04:53.837Z,7328.00
2024-05-09T12:05:53.674Z,7324.00
2024-05-09T12:06:53.718Z,7442.00
2024-05-09T12:07:53.622Z,7187.00
2024-05-09T12:08:53.715Z,7265.00
2024-05-09T12:09:53.628Z,7251.00
2024-05-09T12:10:53.965Z,7395.00
2024-05-09T12:11:53.580Z,7220.00
2024-05-09T12:12:53.618Z,7290.00
2024-05-09T12:13:53.594Z,7275.00
2024-05-09T12:14:53.501Z,7254.00
2024-05-09T12:15:53.577Z,7315.00
2024-05-09T12:16:53.515Z,7344.00
2024-05-09T12:17:53.728Z,7281.00
2024-05-09T12:18:53.621Z,7272.00
2024-05-09T12:19:53.435Z,7249.00
2024-05-09T12:20:53.438Z,7359.00
2024-05-09T12:21:53.517Z,7370.00
2024-05-09T12:22:53.517Z,7310.00
2024-05-09T12:23:53.382Z,7375.00
2024-05-09T12:24:53.452Z,7341.00
2024-05-09T12:25:53.434Z,7666.00
2024-05-09T12:26:53.620Z,6966.00
2024-05-09T12:27:53.427Z,7468.00
2024-05-09T12:28:53.349Z,7293.00
2024-05-09T12:29:53.323Z,7163.00
2024-05-09T12:30:53.351Z,7426.00
2024-05-09T12:31:53.431Z,7319.00